createdAt,value
2023-02-24T00:00:37.415Z,28.74
2023-02-24T00:01:37.408Z,28.26
2023-02-24T00:02:37.504Z,27.04
2023-02-24T00:03:37.460Z,27.13
2023-02-24T00:04:37.378Z,27.52
2023-02-24T00:05:37.366Z,27.47
2023-02-24T00:06:37.360Z,27.08
2023-02-24T00:07:37.375Z,27.77
2023-02-24T01:00:08.531Z,25.00
2023-02-24T01:13:53.795Z,25.00
2023-02-24T02:27:54.066Z,29.43
2023-02-24T02:42:53.008Z,25.54
2023-02-24T02:57:07.569Z,29.53
2023-02-24T04:04:52.328Z,29.94
2023-02-24T04:23:52.127Z,27.28
2023-02-24T04:24:52.111Z,28.08
2023-02-24T04:25:52.149Z,28.81
2023-02-24T04:26:52.101Z,28.52
2023-02-24T04:28:52.087Z,30.15
2023-02-24T04:29:52.070Z,28.81
2023-02-24T04:30:52.170Z,27.26
2023-02-24T04:31:52.307Z,28.44
2023-02-24T04:32:52.103Z,26.88
2023-02-24T04:33:52.033Z,29.06
2023-02-24T04:34:52.019Z,26.06
2023-02-24T04:35:52.014Z,28.12
2023-02-24T04:36:52.008Z,27.19
2023-02-24T04:37:52.017Z,27.82
2023-02-24T04:38:52.609Z,27.04
2023-02-24T04:39:51.974Z,28.14
2023-02-24T04:41:13.612Z,26.62
2023-02-24T04:41:51.959Z,27.72
2023-02-24T04:42:52.189Z,29.74
2023-02-24T04:43:51.941Z,30.25
2023-02-24T04:44:51.946Z,32.35
2023-02-24T04:45:52.651Z,30.40
2023-02-24T04:46:51.979Z,30.45
2023-02-24T04:47:51.917Z,29.05
2023-02-24T04:48:52.619Z,31.22
2023-02-24T04:49:51.900Z,27.00
2023-02-24T04:50:51.888Z,27.62
2023-02-24T04:51:51.882Z,26.61
2023-02-24T04:53:51.890Z,27.77
2023-02-24T04:54:51.843Z,26.73
2023-02-24T04:55:51.854Z,27.59
2023-02-24T04:56:51.835Z,26.89
2023-02-24T04:57:52.130Z,28.52
2023-02-24T04:58:52.613Z,28.62
2023-02-24T04:59:51.805Z,26.60
2023-02-24T05:00:51.804Z,27.93
2023-02-24T05:01:51.825Z,27.88
2023-02-24T05:02:51.782Z,25.61
2023-02-24T05:03:51.857Z,27.99
2023-02-24T05:04:51.803Z,29.36
2023-02-24T05:05:51.753Z,25.34
2023-02-24T05:06:51.760Z,27.93
2023-02-24T05:07:52.126Z,26.76
2023-02-24T05:09:51.740Z,27.38
2023-02-24T05:10:51.715Z,26.38
2023-02-24T05:11:52.623Z,25.00
2023-02-24T05:12:51.704Z,31.11
2023-02-24T05:13:51.685Z,28.82
2023-02-24T05:16:51.654Z,28.16
2023-02-24T05:17:51.659Z,26.69
2023-02-24T05:18:51.644Z,27.90
2023-02-24T05:19:51.634Z,28.81
2023-02-24T05:20:51.624Z,25.23
2023-02-24T05:21:51.616Z,26.91
2023-02-24T05:22:51.606Z,26.86
2023-02-24T05:23:51.603Z,26.32
2023-02-24T05:24:52.128Z,27.02
2023-02-24T05:25:52.151Z,28.21
2023-02-24T05:26:52.130Z,26.17
2023-02-24T05:28:51.556Z,26.76
2023-02-24T05:29:51.550Z,26.93
2023-02-24T05:30:51.572Z,27.84
2023-02-24T05:31:52.262Z,25.10
2023-02-24T05:32:51.585Z,27.44
2023-02-24T05:33:51.513Z,28.72
2023-02-24T05:34:51.504Z,26.26
2023-02-24T05:35:51.493Z,26.47
2023-02-24T05:36:51.483Z,29.29
2023-02-24T05:37:51.490Z,28.53
2023-02-24T05:38:51.466Z,27.51
2023-02-24T05:39:51.458Z,28.65
2023-02-24T05:40:51.445Z,28.81
2023-02-24T05:41:51.481Z,27.56
2023-02-24T05:42:52.163Z,27.46
2023-02-24T05:43:51.438Z,27.42
2023-02-24T05:44:51.406Z,26.98
2023-02-24T05:45:52.133Z,25.37
2023-02-24T05:46:51.437Z,27.13
2023-02-24T05:47:51.394Z,27.60
2023-02-24T05:48:51.637Z,26.61
2023-02-24T05:49:51.364Z,26.88
2023-02-24T05:50:51.358Z,30.08
2023-02-24T05:51:51.350Z,27.51
2023-02-24T05:52:51.332Z,28.45
2023-02-24T05:53:51.641Z,30.01
2023-02-24T05:54:51.321Z,30.36
2023-02-24T05:55:52.135Z,25.85
2023-02-24T05:56:51.306Z,27.61
2023-02-24T05:57:51.321Z,31.65
2023-02-24T05:58:53.032Z,28.30
2023-02-24T05:59:51.278Z,28.60
2023-02-24T06:00:51.269Z,28.54
2023-02-24T06:01:51.312Z,29.23
2023-02-24T06:02:51.327Z,29.94
2023-02-24T06:03:51.255Z,30.04
2023-02-24T06:04:51.736Z,29.40
2023-02-24T06:05:51.218Z,28.34
2023-02-24T06:06:51.211Z,27.88
2023-02-24T06:07:51.206Z,27.85
2023-02-24T06:08:51.200Z,27.66
2023-02-24T06:09:51.190Z,28.74
2023-02-24T06:10:51.179Z,27.60
2023-02-24T06:11:51.247Z,27.43
2023-02-24T06:12:52.801Z,27.64
2023-02-24T06:13:51.183Z,27.84
2023-02-24T06:14:51.151Z,28.43
2023-02-24T06:15:51.142Z,28.49
2023-02-24T06:16:51.643Z,28.71
2023-02-24T06:18:51.116Z,29.55
2023-02-24T06:20:51.282Z,28.17
2023-02-24T06:21:51.085Z,27.65
2023-02-24T06:22:51.076Z,28.40
2023-02-24T06:23:51.651Z,28.17
2023-02-24T06:24:51.072Z,32.68
2023-02-24T06:25:51.050Z,31.81
2023-02-24T06:26:51.113Z,34.34
2023-02-24T06:27:51.030Z,35.56
2023-02-24T06:28:51.024Z,38.98
2023-02-24T06:29:51.071Z,43.33
2023-02-24T06:30:51.039Z,44.03
2023-02-24T06:31:51.170Z,43.05
2023-02-24T06:32:51.806Z,45.17
2023-02-24T06:33:51.019Z,51.20
2023-02-24T06:35:50.962Z,52.44
2023-02-24T06:36:50.957Z,109.80
2023-02-24T06:37:50.958Z,106.24
2023-02-24T06:38:51.657Z,131.19
2023-02-24T06:39:50.950Z,130.64
2023-02-24T06:40:50.954Z,127.66
2023-02-24T06:41:50.954Z,108.47
2023-02-24T06:42:51.194Z,94.06
2023-02-24T06:43:50.925Z,96.82
2023-02-24T06:44:50.923Z,94.95
2023-02-24T06:45:51.249Z,92.58
2023-02-24T06:46:50.873Z,92.98
2023-02-24T06:47:51.178Z,90.10
2023-02-24T06:48:50.893Z,90.20
2023-02-24T06:49:50.881Z,99.63
2023-02-24T06:51:51.696Z,97.34
2023-02-24T06:52:51.344Z,96.09
2023-02-24T06:53:50.846Z,91.81
2023-02-24T06:55:51.199Z,94.81
2023-02-24T06:56:50.818Z,93.51
2023-02-24T06:57:51.144Z,93.66
2023-02-24T06:58:52.693Z,91.99
2023-02-24T06:59:51.202Z,96.30
2023-02-24T07:01:50.797Z,94.01
2023-02-24T07:02:50.773Z,91.78
2023-02-24T07:03:50.804Z,92.32
2023-02-24T07:04:51.199Z,91.27
2023-02-24T07:05:51.198Z,90.84
2023-02-24T07:06:50.709Z,89.60
2023-02-24T07:07:50.705Z,89.95
2023-02-24T07:08:50.724Z,91.01
2023-02-24T07:09:50.706Z,88.10
2023-02-24T07:10:50.706Z,87.75
2023-02-24T07:11:50.685Z,89.41
2023-02-24T07:12:50.674Z,89.43
2023-02-24T07:13:50.673Z,87.23
2023-02-24T07:14:50.696Z,87.64
2023-02-24T07:15:50.647Z,88.28
2023-02-24T07:16:50.686Z,86.35
2023-02-24T07:17:50.658Z,85.88
2023-02-24T07:18:50.648Z,84.65
2023-02-24T07:19:50.709Z,85.13
2023-02-24T07:20:50.598Z,82.89
2023-02-24T07:21:50.594Z,85.57
2023-02-24T07:22:50.573Z,85.73
2023-02-24T07:23:50.592Z,83.98
2023-02-24T07:24:51.817Z,83.80
2023-02-24T07:25:50.616Z,84.96
2023-02-24T07:26:50.712Z,83.03
2023-02-24T07:27:50.617Z,84.76
2023-02-24T07:28:50.579Z,84.21
2023-02-24T07:29:52.728Z,83.15
2023-02-24T07:30:50.812Z,83.33
2023-02-24T07:31:51.033Z,83.74
2023-02-24T07:32:50.960Z,83.45
2023-02-24T07:33:51.525Z,82.15
2023-02-24T07:35:50.703Z,82.99
2023-02-24T07:36:50.472Z,81.27
2023-02-24T07:37:50.461Z,82.47
2023-02-24T07:38:51.224Z,79.21
2023-02-24T07:39:50.431Z,78.58
2023-02-24T07:40:50.436Z,82.76
2023-02-24T07:41:50.711Z,82.81
2023-02-24T07:42:50.409Z,80.88
2023-02-24T07:43:50.403Z,79.33
2023-02-24T07:44:50.419Z,80.08
2023-02-24T07:45:50.390Z,81.26
2023-02-24T07:46:50.725Z,78.57
2023-02-24T07:47:50.718Z,77.59
2023-02-24T07:48:50.362Z,77.36
2023-02-24T07:49:50.373Z,76.28
2023-02-24T07:51:50.336Z,79.30
2023-02-24T07:52:53.520Z,79.59
2023-02-24T07:53:52.268Z,79.43
2023-02-24T07:54:50.311Z,79.38
2023-02-24T07:55:50.354Z,79.78
2023-02-24T07:56:50.713Z,79.68
2023-02-24T07:57:50.713Z,81.96
2023-02-24T07:58:50.266Z,77.66
2023-02-24T07:59:50.256Z,77.04
2023-02-24T08:00:50.313Z,75.69
2023-02-24T08:01:50.213Z,75.61
2023-02-24T08:02:50.304Z,76.08
2023-02-24T08:03:50.684Z,76.30
2023-02-24T08:04:50.666Z,73.34
2023-02-24T08:05:50.236Z,78.04
2023-02-24T08:06:50.177Z,77.17
2023-02-24T08:07:50.158Z,74.50
2023-02-24T08:08:50.185Z,75.70
2023-02-24T08:09:50.689Z,75.45
2023-02-24T08:10:50.132Z,74.81
2023-02-24T08:11:50.212Z,72.83
2023-02-24T08:12:50.683Z,73.79
2023-02-24T08:13:50.108Z,73.83
2023-02-24T08:14:50.217Z,72.72
2023-02-24T08:15:50.280Z,73.41
2023-02-24T08:16:50.238Z,74.12
2023-02-24T08:19:50.724Z,73.40
2023-02-24T08:20:50.686Z,73.30
2023-02-24T08:24:50.236Z,73.24
2023-02-24T08:26:50.721Z,69.27
2023-02-24T08:28:50.691Z,73.78
2023-02-24T08:29:50.194Z,73.98
2023-02-24T08:30:50.366Z,72.78
2023-02-24T08:35:50.700Z,73.27
2023-02-24T08:36:50.208Z,70.06
2023-02-24T08:40:50.312Z,71.19
2023-02-24T08:41:50.203Z,69.03
2023-02-24T08:42:50.203Z,69.99
2023-02-24T08:43:50.844Z,71.94
2023-02-24T08:46:50.404Z,71.41
2023-02-24T08:51:50.210Z,72.18
2023-02-24T08:54:50.725Z,42.15
2023-02-24T08:55:50.210Z,25.00
2023-02-24T08:56:50.746Z,25.00
2023-02-24T08:58:49.744Z,47.64
2023-02-24T09:08:49.656Z,143.78
2023-02-24T09:13:49.576Z,164.05
2023-02-24T09:16:52.421Z,181.67
2023-02-24T09:24:52.706Z,206.56
2023-02-24T09:30:50.283Z,224.42
2023-02-24T09:32:50.382Z,234.23
2023-02-24T09:36:49.378Z,199.03
2023-02-24T09:51:02.822Z,167.14
2023-02-24T09:51:50.274Z,167.47
2023-02-24T10:12:53.068Z,145.29
2023-02-24T10:21:04.404Z,143.82
2023-02-24T11:15:48.587Z,236.35
2023-02-24T11:31:48.525Z,217.12
2023-02-24T11:37:03.267Z,228.23
2023-02-24T11:38:51.275Z,229.62
2023-02-24T11:56:50.778Z,212.21
2023-02-24T12:09:48.064Z,209.66
2023-02-24T12:21:50.821Z,204.08
2023-02-24T12:57:02.291Z,197.43
2023-02-24T13:02:47.601Z,198.94
2023-02-24T13:04:47.533Z,197.66
2023-02-24T13:09:47.498Z,192.74
2023-02-24T13:31:47.412Z,183.58
2023-02-24T13:47:54.768Z,185.05
2023-02-24T14:27:46.814Z,178.98
2023-02-24T14:34:47.339Z,175.42
2023-02-24T14:55:53.404Z,175.25
2023-02-24T14:58:01.345Z,176.32
2023-02-24T15:16:53.390Z,173.14
2023-02-24T15:25:46.846Z,175.02
2023-02-24T15:27:46.249Z,169.13
2023-02-24T15:34:52.852Z,173.09
2023-02-24T15:41:46.125Z,172.58
2023-02-24T16:11:52.861Z,165.88
2023-02-24T16:34:52.394Z,165.15
2023-02-24T16:42:45.575Z,163.94
2023-02-24T16:53:45.479Z,160.78
2023-02-24T16:54:45.468Z,160.94
2023-02-24T16:55:45.471Z,155.98
2023-02-24T16:56:45.454Z,159.25
2023-02-24T16:57:45.447Z,157.77
2023-02-24T16:58:45.430Z,160.40
2023-02-24T16:59:45.434Z,159.20
2023-02-24T17:00:45.427Z,156.61
2023-02-24T17:01:45.410Z,159.04
2023-02-24T17:03:45.433Z,155.04
2023-02-24T17:04:45.378Z,155.79
2023-02-24T17:05:45.405Z,156.30
2023-02-24T17:06:45.404Z,160.31
2023-02-24T17:07:45.891Z,159.44
2023-02-24T17:08:45.397Z,160.99
2023-02-24T17:09:45.338Z,158.77
2023-02-24T17:10:45.331Z,154.75
2023-02-24T17:11:45.323Z,158.83
2023-02-24T17:12:45.310Z,158.56
2023-02-24T17:13:45.307Z,156.27
2023-02-24T17:14:45.292Z,156.63
2023-02-24T17:15:45.424Z,155.02
2023-02-24T17:16:45.978Z,157.61
2023-02-24T17:17:45.276Z,157.11
2023-02-24T17:18:45.272Z,153.85
2023-02-24T17:19:45.250Z,153.99
2023-02-24T17:20:45.241Z,154.53
2023-02-24T17:21:45.231Z,153.77
2023-02-24T17:22:45.246Z,153.82
2023-02-24T17:23:45.216Z,154.53
2023-02-24T17:24:45.231Z,152.02
2023-02-24T17:25:45.209Z,152.13
2023-02-24T17:26:45.196Z,153.05
2023-02-24T17:27:45.179Z,147.90
2023-02-24T17:28:45.188Z,152.28
2023-02-24T17:29:45.163Z,154.60
2023-02-24T17:30:45.292Z,148.53
2023-02-24T17:31:45.395Z,151.82
2023-02-24T17:32:45.222Z,153.03
2023-02-24T17:33:45.130Z,153.89
2023-02-24T17:34:45.114Z,151.00
2023-02-24T17:36:45.096Z,152.11
2023-02-24T17:37:45.898Z,152.20
2023-02-24T17:38:45.088Z,152.91
2023-02-24T17:39:45.073Z,152.31
2023-02-24T17:40:45.081Z,149.47
2023-02-24T17:41:45.051Z,149.20
2023-02-24T17:42:45.040Z,149.56
2023-02-24T17:43:45.052Z,150.48
2023-02-24T17:44:45.023Z,149.46
2023-02-24T17:45:45.234Z,150.73
2023-02-24T17:46:45.947Z,151.02
2023-02-24T17:47:45.904Z,151.21
2023-02-24T17:48:44.999Z,147.75
2023-02-24T17:49:45.019Z,148.03
2023-02-24T17:50:44.975Z,149.19
2023-02-24T17:51:44.961Z,147.33
2023-02-24T17:52:44.957Z,143.72
2023-02-24T17:53:45.907Z,141.24
2023-02-24T17:54:44.942Z,140.71
2023-02-24T17:56:01.380Z,147.65
2023-02-24T17:56:45.446Z,147.94
2023-02-24T17:57:44.903Z,147.80
2023-02-24T17:58:44.893Z,147.29
2023-02-24T17:59:44.887Z,147.98
2023-02-24T18:00:44.884Z,145.29
2023-02-24T18:01:44.874Z,144.26
2023-02-24T18:02:45.023Z,145.85
2023-02-24T18:03:44.871Z,146.55
2023-02-24T18:04:44.856Z,145.21
2023-02-24T18:05:45.406Z,146.63
2023-02-24T18:06:45.403Z,145.29
2023-02-24T18:07:44.826Z,146.15
2023-02-24T18:08:44.808Z,142.65
2023-02-24T18:09:51.405Z,148.04
2023-02-24T18:10:44.785Z,148.38
2023-02-24T18:11:44.783Z,148.12
2023-02-24T18:12:45.431Z,145.79
2023-02-24T18:13:44.771Z,143.68
2023-02-24T18:14:44.753Z,144.00
2023-02-24T18:15:44.795Z,143.45
2023-02-24T18:16:44.737Z,141.55
2023-02-24T18:17:44.725Z,142.99
2023-02-24T18:18:44.719Z,141.33
2023-02-24T18:19:44.711Z,141.82
2023-02-24T18:20:44.719Z,143.11
2023-02-24T18:21:45.418Z,141.98
2023-02-24T18:22:44.687Z,139.40
2023-02-24T18:23:44.674Z,137.29
2023-02-24T18:24:44.659Z,136.01
2023-02-24T18:25:44.665Z,140.40
2023-02-24T18:26:44.641Z,139.20
2023-02-24T18:27:44.641Z,140.07
2023-02-24T18:28:44.648Z,137.46
2023-02-24T18:29:44.619Z,139.79
2023-02-24T18:30:44.691Z,139.23
2023-02-24T18:31:44.869Z,135.30
2023-02-24T18:32:44.881Z,139.39
2023-02-24T18:33:44.768Z,137.31
2023-02-24T18:34:44.576Z,136.42
2023-02-24T18:35:44.569Z,137.58
2023-02-24T18:36:44.587Z,135.90
2023-02-24T18:37:44.548Z,136.28
2023-02-24T18:38:44.549Z,138.77
2023-02-24T18:39:44.534Z,135.84
2023-02-24T18:40:44.521Z,137.63
2023-02-24T18:41:44.510Z,136.86
2023-02-24T18:42:44.505Z,134.65
2023-02-24T18:43:44.493Z,135.56
2023-02-24T18:44:44.518Z,135.67
2023-02-24T18:46:44.566Z,133.67
2023-02-24T18:48:44.952Z,133.94
2023-02-24T18:49:45.423Z,136.56
2023-02-24T18:50:44.430Z,138.99
2023-02-24T18:51:44.423Z,140.55
2023-02-24T18:52:44.411Z,142.22
2023-02-24T18:53:44.430Z,140.36
2023-02-24T18:54:44.393Z,140.07
2023-02-24T18:55:44.389Z,136.16
2023-02-24T18:56:44.379Z,137.69
2023-02-24T18:57:44.368Z,136.26
2023-02-24T18:58:44.365Z,133.48
2023-02-24T18:59:44.352Z,128.21
2023-02-24T19:00:44.382Z,131.09
2023-02-24T19:01:44.423Z,131.42
2023-02-24T19:02:44.367Z,133.90
2023-02-24T19:03:44.313Z,134.56
2023-02-24T19:04:44.301Z,133.11
2023-02-24T19:05:44.315Z,133.70
2023-02-24T19:06:44.299Z,131.04
2023-02-24T19:07:44.281Z,131.07
2023-02-24T19:08:44.312Z,133.41
2023-02-24T19:09:44.438Z,130.49
2023-02-24T19:10:44.262Z,130.02
2023-02-24T19:11:44.251Z,128.16
2023-02-24T19:12:44.234Z,128.83
2023-02-24T19:13:44.223Z,129.44
2023-02-24T19:14:44.219Z,127.43
2023-02-24T19:15:44.296Z,128.47
2023-02-24T19:16:44.281Z,128.38
2023-02-24T19:17:44.946Z,130.27
2023-02-24T19:18:44.182Z,126.18
2023-02-24T19:19:44.211Z,127.74
2023-02-24T19:20:44.162Z,127.37
2023-02-24T19:21:44.158Z,127.96
2023-02-24T19:22:44.157Z,125.77
2023-02-24T19:23:44.132Z,124.63
2023-02-24T19:24:44.136Z,125.78
2023-02-24T19:25:44.125Z,123.47
2023-02-24T19:26:44.118Z,124.68
2023-02-24T19:27:44.102Z,123.78
2023-02-24T19:28:44.089Z,120.43
2023-02-24T19:29:44.082Z,118.62
2023-02-24T19:30:44.117Z,119.05
2023-02-24T19:31:44.199Z,117.06
2023-02-24T19:32:44.221Z,119.19
2023-02-24T19:33:44.047Z,118.49
2023-02-24T19:34:44.041Z,117.26
2023-02-24T19:35:44.028Z,115.67
2023-02-24T19:36:44.023Z,113.44
2023-02-24T19:37:44.013Z,114.31
2023-02-24T19:38:44.006Z,113.42
2023-02-24T19:39:43.987Z,114.04
2023-02-24T19:40:43.975Z,111.30
2023-02-24T19:41:43.981Z,111.77
2023-02-24T19:42:43.965Z,114.99
2023-02-24T19:43:43.970Z,113.66
2023-02-24T19:44:43.954Z,112.35
2023-02-24T19:45:44.037Z,114.16
2023-02-24T19:46:43.924Z,110.36
2023-02-24T19:47:43.921Z,111.01
2023-02-24T19:48:43.935Z,111.33
2023-02-24T19:49:43.909Z,105.36
2023-02-24T19:50:43.936Z,103.57
2023-02-24T19:51:43.888Z,101.94
2023-02-24T19:52:43.875Z,103.01
2023-02-24T19:53:43.871Z,103.71
2023-02-24T19:54:43.852Z,102.59
2023-02-24T19:55:43.848Z,102.68
2023-02-24T19:56:43.897Z,102.62
2023-02-24T19:57:43.830Z,101.06
2023-02-24T19:58:43.819Z,103.05
2023-02-24T19:59:43.837Z,103.82
2023-02-24T20:00:43.802Z,102.92
2023-02-24T20:01:43.793Z,102.60
2023-02-24T20:03:43.779Z,98.86
2023-02-24T20:04:43.836Z,100.15
2023-02-24T20:05:43.760Z,99.40
2023-02-24T20:06:43.769Z,94.70
2023-02-24T20:07:43.743Z,99.24
2023-02-24T20:08:43.729Z,100.04
2023-02-24T20:09:43.731Z,99.28
2023-02-24T20:10:43.718Z,101.62
2023-02-24T20:11:43.716Z,103.15
2023-02-24T20:12:43.697Z,100.18
2023-02-24T20:13:43.699Z,99.79
2023-02-24T20:14:43.677Z,97.93
2023-02-24T20:15:43.672Z,97.69
2023-02-24T20:16:43.757Z,98.25
2023-02-24T20:17:43.649Z,98.88
2023-02-24T20:18:43.640Z,100.71
2023-02-24T20:19:43.680Z,100.19
2023-02-24T20:20:43.649Z,101.90
2023-02-24T20:21:43.624Z,100.99
2023-02-24T20:22:43.616Z,101.83
2023-02-24T20:23:43.612Z,102.30
2023-02-24T20:24:43.590Z,100.51
2023-02-24T20:25:43.579Z,102.03
2023-02-24T20:26:43.573Z,101.61
2023-02-24T20:28:43.561Z,100.51
2023-02-24T20:30:43.568Z,101.81
2023-02-24T20:31:43.723Z,103.05
2023-02-24T20:32:43.867Z,104.38
2023-02-24T20:33:43.615Z,105.27
2023-02-24T20:34:43.575Z,104.21
2023-02-24T20:35:43.492Z,102.74
2023-02-24T20:36:43.509Z,103.98
2023-02-24T20:37:43.471Z,102.77
2023-02-24T20:38:43.470Z,101.36
2023-02-24T20:39:43.476Z,103.46
2023-02-24T20:40:43.449Z,102.26
2023-02-24T20:41:43.440Z,100.97
2023-02-24T20:42:43.430Z,99.22
2023-02-24T20:43:45.971Z,102.13
2023-02-24T20:44:43.963Z,102.23
2023-02-24T20:45:43.445Z,102.60
2023-02-24T20:46:43.971Z,102.79
2023-02-24T20:47:43.382Z,100.25
2023-02-24T20:48:43.373Z,101.49
2023-02-24T20:49:43.424Z,102.50
2023-02-24T20:50:43.369Z,100.83
2023-02-24T20:51:43.355Z,99.49
2023-02-24T20:52:43.361Z,99.32
2023-02-24T20:53:56.050Z,100.70
2023-02-24T20:54:43.340Z,100.98
2023-02-24T20:55:43.328Z,101.60
2023-02-24T20:56:43.308Z,101.18
2023-02-24T20:57:43.298Z,100.98
2023-02-24T20:58:43.294Z,98.62
2023-02-24T20:59:49.269Z,96.86
2023-02-24T21:00:43.291Z,97.33
2023-02-24T21:01:46.844Z,98.45
2023-02-24T21:02:43.252Z,97.41
2023-02-24T21:03:43.976Z,98.29
2023-02-24T21:04:43.334Z,98.70
2023-02-24T21:05:43.230Z,98.19
2023-02-24T21:06:43.221Z,101.80
2023-02-24T21:07:43.975Z,97.67
2023-02-24T21:08:43.241Z,99.10
2023-02-24T21:09:43.262Z,97.57
2023-02-24T21:10:43.193Z,98.78
2023-02-24T21:11:43.186Z,94.68
2023-02-24T21:12:43.172Z,97.25
2023-02-24T21:13:43.169Z,95.62
2023-02-24T21:14:43.156Z,95.65
2023-02-24T21:15:43.522Z,93.57
2023-02-24T21:16:43.147Z,93.70
2023-02-24T21:17:43.132Z,94.56
2023-02-24T21:18:43.112Z,93.67
2023-02-24T21:19:43.104Z,94.02
2023-02-24T21:20:43.100Z,93.00
2023-02-24T21:21:43.089Z,93.18
2023-02-24T21:23:43.081Z,94.22
2023-02-24T21:24:43.093Z,94.66
2023-02-24T21:25:43.050Z,94.60
2023-02-24T21:26:43.986Z,95.54
2023-02-24T21:27:43.025Z,94.36
2023-02-24T21:28:43.025Z,95.01
2023-02-24T21:29:43.978Z,92.93
2023-02-24T21:30:46.043Z,91.44
2023-02-24T21:31:43.252Z,91.69
2023-02-24T21:32:43.098Z,92.05
2023-02-24T21:33:42.994Z,92.94
2023-02-24T21:34:42.967Z,94.21
2023-02-24T21:35:42.960Z,96.80
2023-02-24T21:36:42.951Z,94.12
2023-02-24T21:37:42.936Z,92.57
2023-02-24T21:38:43.479Z,96.48
2023-02-24T21:39:42.936Z,96.44
2023-02-24T21:40:42.937Z,93.52
2023-02-24T21:41:42.958Z,93.62
2023-02-24T21:42:42.893Z,93.18
2023-02-24T21:43:42.886Z,93.68
2023-02-24T21:44:44.545Z,92.30
2023-02-24T21:45:42.866Z,97.39
2023-02-24T21:46:42.906Z,96.84
2023-02-24T21:47:42.850Z,93.23
2023-02-24T21:48:42.845Z,93.06
2023-02-24T21:49:42.834Z,92.97
2023-02-24T21:50:42.831Z,91.21
2023-02-24T21:51:42.816Z,91.48
2023-02-24T21:52:42.808Z,88.17
2023-02-24T21:53:42.800Z,88.93
2023-02-24T21:54:42.791Z,87.32
2023-02-24T21:55:42.790Z,90.04
2023-02-24T21:56:42.819Z,88.24
2023-02-24T21:57:42.764Z,88.13
2023-02-24T21:58:43.490Z,88.10
2023-02-24T21:59:43.485Z,88.68
2023-02-24T22:00:42.740Z,88.54
2023-02-24T22:01:42.810Z,89.21
2023-02-24T22:02:42.718Z,87.94
2023-02-24T22:03:42.713Z,88.30
2023-02-24T22:04:42.705Z,89.48
2023-02-24T22:05:42.694Z,88.89
2023-02-24T22:06:42.690Z,85.94
2023-02-24T22:07:42.676Z,86.75
2023-02-24T22:08:42.667Z,88.86
2023-02-24T22:09:42.658Z,85.16
2023-02-24T22:10:42.659Z,86.81
2023-02-24T22:11:42.634Z,86.91
2023-02-24T22:12:42.666Z,85.29
2023-02-24T22:13:42.617Z,86.54
2023-02-24T22:14:42.615Z,85.85
2023-02-24T22:15:42.729Z,86.63
2023-02-24T22:16:42.607Z,87.75
2023-02-24T22:17:42.595Z,83.03
2023-02-24T22:18:42.574Z,82.89
2023-02-24T22:19:42.569Z,83.05
2023-02-24T22:20:42.556Z,85.87
2023-02-24T22:21:42.716Z,85.47
2023-02-24T22:22:42.544Z,84.28
2023-02-24T22:23:42.539Z,85.21
2023-02-24T22:24:42.525Z,81.91
2023-02-24T22:25:42.520Z,82.32
2023-02-24T22:26:42.508Z,81.76
2023-02-24T22:27:42.494Z,80.82
2023-02-24T22:28:42.528Z,80.79
2023-02-24T22:29:42.480Z,78.46
2023-02-24T22:30:42.506Z,80.05
2023-02-24T22:31:42.587Z,76.91
2023-02-24T22:32:42.560Z,77.18
2023-02-24T22:33:42.451Z,76.44
2023-02-24T22:34:42.437Z,73.54
2023-02-24T22:35:42.427Z,75.65
2023-02-24T22:36:42.415Z,76.24
2023-02-24T22:37:42.407Z,78.08
2023-02-24T22:38:42.405Z,77.02
2023-02-24T22:39:42.398Z,77.81
2023-02-24T22:40:42.384Z,78.63
2023-02-24T22:41:42.380Z,77.30
2023-02-24T22:42:42.365Z,81.02
2023-02-24T22:43:42.353Z,77.10
2023-02-24T22:44:42.370Z,79.14
2023-02-24T22:45:42.342Z,79.46
2023-02-24T22:46:42.399Z,77.27
2023-02-24T22:47:42.402Z,79.15
2023-02-24T22:48:42.307Z,79.40
2023-02-24T22:49:42.300Z,80.29
2023-02-24T22:50:42.299Z,77.96
2023-02-24T22:51:42.289Z,78.94
2023-02-24T22:52:42.281Z,76.96
2023-02-24T22:53:42.271Z,79.47
2023-02-24T22:54:42.258Z,79.34
2023-02-24T22:55:43.014Z,77.18
2023-02-24T22:56:42.267Z,79.23
2023-02-24T22:57:42.230Z,79.36
2023-02-24T22:58:42.225Z,77.22
2023-02-24T22:59:42.213Z,77.88
2023-02-24T23:00:42.277Z,76.24
2023-02-24T23:01:42.204Z,76.97
2023-02-24T23:02:42.194Z,77.47
2023-02-24T23:03:42.195Z,78.28
2023-02-24T23:04:42.172Z,78.87
2023-02-24T23:05:42.164Z,78.06
2023-02-24T23:06:42.151Z,77.45
2023-02-24T23:07:42.145Z,79.63
2023-02-24T23:08:42.166Z,78.29
2023-02-24T23:09:42.128Z,78.45
2023-02-24T23:11:42.115Z,78.66
2023-02-24T23:13:42.091Z,77.35
